Railroad, Pennsylvania
Current Conditions -  °F | °C
As of 1:53 PM on Sunday 23 Nov 2014 (Local Time) from KTHV Reporting Station
Clear Clear  
Wind Chill: 59°   Ceiling: Unl
Heat Index: 59°   Visibility: 10mi
Dew Point: 25°   Wind: 9mph
Humidity: 27%   Direction: 150°SSE
Pressure: 30.08"   Gusts: NA
Location:  39.76°N, 76.7°W
Report Text: KTHV 231853Z AUTO 15008KT 10SM CLR 15/M04 A3008 RMK AO2 SLP190 T01501039
Loading
Personal Weather Stations






























Interactive Weather Map New forecast layout! Learn more

10-Day Weather Forecast

Advertisements
Track Severe Weather on mobile